Newport, Delaware
Current Conditions -  °F | °C
As of 2:51 AM on Friday 31 Oct 2014 (Local Time) from KILG Reporting Station
Broken Clouds Broken Clouds  
Wind Chill: 41°   Ceiling: 5500
Heat Index: 41°   Visibility: 10mi
Dew Point: 37°   Wind: 3mph
Humidity: 86%   Direction: 350°N
Pressure: 30.03"   Gusts: NA
Location:  39.7187°N, 75.6123°W
Report Text: KILG 310651Z 35003KT 10SM BKN055 05/03 A3003 RMK AO2 SLP168 T00500028
Loading
Personal Weather Stations






























Interactive Weather Map
Tropical Storm Tracking
New forecast layout! Learn more

10-Day Weather Forecast

Advertisements
Track Severe Weather on mobile